Time;durP1;ratioP1;P1;durP2;ratioP2;P2;SDS_P1;SDS_P2;PMS_P1;PMS_P2;Temp;Humidity;BMP_temperature;BMP_pressure;BME280_temperature;BME280_humidity;BME280_pressure;Samples;Min_cycle;Max_cycle;Signal;HPM_P1;HPM_P2
2022/08/11 00:01:59;;;;;;;4.07;2.55;;;;;;;22.68;40.09;102164.94;4969052;28;123487;-74
2022/08/11 00:04:34;;;;;;;3.45;2.47;;;;;;;22.65;40.25;102159.75;4968247;28;114388;-74
2022/08/11 00:07:02;;;;;;;;;;;;;;;22.61;39.53;102158.25;4952455;28;114004;-74
2022/08/11 00:09:37;;;;;;;4.10;2.53;;;;;;;22.62;39.79;102154.59;4968440;28;124433;-74
2022/08/11 00:12:15;;;;;;;3.97;2.45;;;;;;;22.62;39.90;102159.13;4965812;28;122686;-74
2022/08/11 00:14:43;;;;;;;7.55;2.80;;;;;;;22.63;40.01;102155.44;4948455;28;113651;-74
2022/08/11 00:17:14;;;;;;;9.07;2.85;;;;;;;22.62;40.02;102149.19;4949911;28;113979;-74
2022/08/11 00:19:46;;;;;;;4.80;2.88;;;;;;;22.60;40.27;102151.13;4930472;28;122992;-74
2022/08/11 00:22:36;;;;;;;4.35;2.90;;;;;;;22.60;40.09;102150.28;4953988;28;124130;-74
2022/08/11 00:25:35;;;;;;;4.03;2.85;;;;;;;22.57;40.06;102154.06;4969065;28;114844;-73
2022/08/11 00:28:03;;;;;;;5.07;3.25;;;;;;;22.56;40.16;102157.75;4958017;28;114072;-74
2022/08/11 00:30:39;;;;;;;6.47;3.40;;;;;;;22.51;40.28;102154.53;4950206;28;123319;-74
2022/08/11 00:33:07;;;;;;;4.45;2.85;;;;;;;22.49;40.61;102153.75;4968484;28;124700;-74
2022/08/11 00:35:35;;;;;;;4.57;2.90;;;;;;;22.45;40.72;102158.56;4968100;28;115155;-74
2022/08/11 00:38:24;;;;;;;7.45;3.35;;;;;;;22.42;40.86;102157.94;4968609;28;114669;-74
2022/08/11 00:41:10;;;;;;;4.00;3.00;;;;;;;22.39;40.67;102158.16;4950655;28;123709;-74
2022/08/11 00:43:43;;;;;;;;;;;;;;;22.33;39.92;102160.31;4952258;28;124573;-74
2022/08/11 00:46:26;;;;;;;7.20;2.85;;;;;;;22.30;40.60;102155.16;4963147;28;114327;-74
2022/08/11 00:49:11;;;;;;;5.63;2.80;;;;;;;22.26;40.53;102159.03;4959347;28;113904;-74
2022/08/11 00:51:41;;;;;;;3.70;2.72;;;;;;;22.23;40.98;102159.25;4963092;28;123982;-74
2022/08/11 00:54:37;;;;;;;4.57;2.78;;;;;;;22.20;40.88;102153.22;4966044;28;123996;-74
2022/08/11 00:57:26;;;;;;;4.65;2.58;;;;;;;22.15;40.86;102161.63;4967149;28;113816;-74
2022/08/11 01:00:22;;;;;;;4.10;3.05;;;;;;;22.11;40.98;102149.34;4963079;28;113538;-74
2022/08/11 01:03:17;;;;;;;8.13;3.20;;;;;;;22.06;40.91;102146.16;4942827;28;123448;-74
2022/08/11 01:06:13;;;;;;;5.07;3.08;;;;;;;22.03;40.99;102158.00;4967335;28;123689;-74
2022/08/11 01:09:06;;;;;;;4.88;2.60;;;;;;;21.99;41.03;102152.97;4948642;28;114536;-74
2022/08/11 01:11:51;;;;;;;5.68;2.88;;;;;;;21.97;41.10;102159.31;4971510;28;113865;-74
2022/08/11 01:14:44;;;;;;;4.47;2.72;;;;;;;21.96;41.39;102157.59;4977464;28;124098;-73
2022/08/11 01:17:49;;;;;;;4.88;2.90;;;;;;;21.92;41.29;102156.06;4996214;28;124489;-73
2022/08/11 01:20:38;;;;;;;5.90;3.00;;;;;;;21.90;41.30;102152.63;4986978;28;116438;-74
2022/08/11 01:23:23;;;;;;;3.92;2.53;;;;;;;21.86;41.40;102156.53;4975573;28;113719;-74
2022/08/11 01:26:18;;;;;;;5.47;2.83;;;;;;;21.82;41.50;102155.03;4968711;28;123208;-74
2022/08/11 01:29:00;;;;;;;4.00;2.88;;;;;;;21.78;41.48;102158.91;4954553;28;124375;-74
2022/08/11 01:31:55;;;;;;;4.10;2.78;;;;;;;21.77;41.42;102157.19;4969350;28;114926;-74
2022/08/11 01:34:26;;;;;;;5.00;2.63;;;;;;;21.74;41.60;102158.28;4969734;28;114443;-74
2022/08/11 01:37:28;;;;;;;6.30;3.13;;;;;;;21.71;41.58;102163.88;4953011;28;122353;-74
2022/08/11 01:40:16;;;;;;;4.97;2.92;;;;;;;21.68;41.69;102157.84;4969584;28;124718;-74
2022/08/11 01:46:15;;;;;;;5.20;2.80;;;;;;;21.65;41.68;102158.06;4969755;28;113978;-74
2022/08/11 01:49:02;;;;;;;3.60;2.63;;;;;;;21.64;41.83;102156.34;4951599;28;123261;-74
2022/08/11 01:52:27;;;;;;;4.53;2.83;;;;;;;21.64;41.70;102156.34;4937706;28;123472;-74
2022/08/11 01:55:22;;;;;;;3.45;2.63;;;;;;;21.63;41.63;102165.41;4968493;28;114536;-74
2022/08/11 01:57:59;;;;;;;3.60;2.67;;;;;;;21.63;41.73;102160.88;4968581;28;113942;-74
2022/08/11 02:00:30;;;;;;;4.30;2.60;;;;;;;21.65;41.72;102158.06;4950108;28;124064;-74
2022/08/11 02:03:13;;;;;;;5.30;2.83;;;;;;;21.66;41.82;102154.38;4969862;28;124500;-74
2022/08/11 02:09:43;;;;;;;7.45;2.80;;;;;;;21.58;41.52;102161.19;4970782;28;114201;-74
2022/08/11 02:12:43;;;;;;;4.32;2.85;;;;;;;21.51;41.72;102162.63;4940172;28;123519;-74
2022/08/11 02:15:28;;;;;;;5.78;3.08;;;;;;;21.48;42.10;102146.66;4975861;28;124320;-74
2022/08/11 02:18:12;;;;;;;5.75;3.15;;;;;;;21.45;42.23;102152.25;4956355;28;114672;-74
2022/08/11 02:23:48;;;;;;;4.97;3.40;;;;;;;21.37;42.39;102155.44;4976746;28;124145;-73
2022/08/11 02:26:40;;;;;;;5.03;3.15;;;;;;;21.33;42.28;102161.16;4976833;28;124430;-74
2022/08/11 02:29:19;;;;;;;3.58;3.22;;;;;;;21.31;42.26;102163.13;4958192;28;113170;-74
2022/08/11 02:35:27;;;;;;;4.60;3.20;;;;;;;21.19;42.23;102163.00;4969260;28;124410;-74
2022/08/11 02:38:24;;;;;;;4.63;3.25;;;;;;;21.15;42.24;102161.47;4952222;28;122194;-74
2022/08/11 02:42:21;;;;;;;4.07;3.17;;;;;;;21.11;42.48;102157.25;4970680;28;113991;-73
2022/08/11 02:44:16;;;;;;;4.63;3.42;;;;;;;21.05;42.50;102149.59;4969209;28;113783;-73
2022/08/11 02:46:57;;;;;;;5.40;3.70;;;;;;;20.99;42.66;102150.03;4969472;28;123982;-74
2022/08/11 02:50:11;;;;;;;3.97;3.13;;;;;;;20.93;42.54;102145.06;4967576;28;123265;-73
2022/08/11 02:53:02;;;;;;;5.22;3.50;;;;;;;20.87;42.93;102140.06;4902230;28;113139;-76
2022/08/11 02:55:46;;;;;;;4.18;3.33;;;;;;;20.83;43.03;102146.66;4958041;28;114197;-74
2022/08/11 03:01:56;;;;;;;4.85;3.22;;;;;;;20.74;42.98;102153.53;4952310;28;123238;-75
2022/08/11 03:05:10;;;;;;;5.65;3.03;;;;;;;20.70;43.04;102149.28;4967387;28;114580;-74
2022/08/11 03:08:01;;;;;;;3.90;3.15;;;;;;;20.66;43.03;102154.03;4968296;28;114598;-73
2022/08/11 03:10:40;;;;;;;4.88;3.10;;;;;;;20.63;43.32;102156.94;4948491;28;124437;-73
2022/08/11 03:19:15;;;;;;;5.45;3.22;;;;;;;20.51;43.55;102155.00;4970120;28;113827;-73
2022/08/11 03:21:55;;;;;;;4.50;3.40;;;;;;;20.46;44.09;102155.31;4954106;28;124518;-73
2022/08/11 03:24:54;;;;;;;7.97;3.20;;;;;;;20.42;44.13;102157.34;4968720;28;123721;-73
2022/08/11 03:27:59;;;;;;;4.15;3.58;;;;;;;20.38;43.92;102153.16;4951639;28;114578;-73
2022/08/11 03:30:31;;;;;;;4.82;3.63;;;;;;;20.35;43.85;102152.47;4967841;28;114789;-73
2022/08/11 03:36:34;;;;;;;6.30;3.83;;;;;;;20.27;44.11;102147.59;4963408;28;124323;-73
2022/08/11 03:39:36;;;;;;;5.68;3.80;;;;;;;20.24;44.17;102147.78;4951791;28;113631;-73
2022/08/11 03:42:35;;;;;;;7.13;3.80;;;;;;;20.22;44.03;102144.34;4966954;28;113125;-73
2022/08/11 03:45:21;;;;;;;5.10;3.53;;;;;;;20.21;44.47;102145.28;4946786;28;123472;-73
2022/08/11 03:48:09;;;;;;;6.70;3.88;;;;;;;20.18;44.24;102148.19;4967912;28;123861;-73
2022/08/11 03:50:51;;;;;;;4.70;3.70;;;;;;;20.16;44.21;102150.13;4967379;28;114444;-73
2022/08/11 03:53:59;;;;;;;5.32;4.00;;;;;;;20.13;44.35;102139.56;4951247;28;113415;-73
2022/08/11 03:56:54;;;;;;;7.20;4.30;;;;;;;20.10;44.54;102142.44;4962055;28;123625;-73
2022/08/11 04:00:02;;;;;;;7.22;4.32;;;;;;;20.07;44.56;102140.81;4967602;28;123804;-73
2022/08/11 04:03:08;;;;;;;6.93;3.78;;;;;;;20.05;44.47;102152.66;4968990;28;116514;-74
2022/08/11 04:06:10;;;;;;;7.10;4.28;;;;;;;20.03;44.63;102144.69;4964844;28;113458;-73
2022/08/11 04:09:04;;;;;;;7.70;4.47;;;;;;;20.02;44.93;102149.19;4960607;28;124015;-74
2022/08/11 04:11:42;;;;;;;6.25;4.55;;;;;;;20.00;44.91;102140.38;4966348;28;123610;-74
2022/08/11 04:17:46;;;;;;;6.32;3.92;;;;;;;19.96;45.12;102144.19;4966417;28;114033;-74
2022/08/11 04:20:34;;;;;;;4.77;3.77;;;;;;;19.93;44.90;102143.53;4968793;28;123813;-74
2022/08/11 04:23:36;;;;;;;6.50;4.25;;;;;;;19.89;45.01;102134.81;4968284;28;127110;-74
2022/08/11 04:26:41;;;;;;;5.78;4.38;;;;;;;19.88;45.01;102140.28;4961476;28;115121;-74
2022/08/11 04:29:08;;;;;;;7.90;4.63;;;;;;;19.86;45.17;102143.06;4945896;28;114125;-74
2022/08/11 04:32:05;;;;;;;8.30;4.25;;;;;;;19.84;45.22;102145.00;4968510;28;123388;-74
2022/08/11 04:34:35;;;;;;;6.88;4.15;;;;;;;19.83;45.37;102145.94;4966632;28;123937;-74
2022/08/11 04:37:34;;;;;;;6.78;4.60;;;;;;;19.82;45.60;102141.53;4968611;28;114357;-73
2022/08/11 04:40:41;;;;;;;8.80;4.70;;;;;;;19.79;45.70;102147.09;4933853;28;113913;-74
2022/08/11 04:44:00;;;;;;;6.93;4.30;;;;;;;19.78;45.31;102145.38;4965417;28;123109;-74
2022/08/11 04:46:50;;;;;;;8.55;4.57;;;;;;;19.77;45.64;102149.88;4939803;28;124288;-74
2022/08/11 05:01:42;;;;;;;7.50;4.78;;;;;;;19.80;46.29;102148.84;4975426;28;114031;-74
2022/08/11 05:07:53;;;;;;;10.32;4.65;;;;;;;19.83;46.55;102154.00;4964208;28;123658;-74
2022/08/11 05:10:52;;;;;;;6.85;4.68;;;;;;;19.85;46.67;102146.69;4967191;28;123788;-74
2022/08/11 05:34:54;;;;;;;6.90;5.05;;;;;;;20.28;47.02;102160.06;4974342;28;123642;-74
2022/08/11 05:57:59;;;;;;;7.30;5.13;;;;;;;20.86;47.86;102155.38;4942672;28;123281;-74
2022/08/11 06:00:27;;;;;;;9.30;5.85;;;;;;;20.95;48.06;102156.59;4968861;28;114565;-74
2022/08/11 06:02:59;;;;;;;7.88;5.10;;;;;;;21.02;48.15;102160.59;4953911;28;113648;-74
2022/08/11 06:05:36;;;;;;;7.90;5.20;;;;;;;21.11;48.06;102162.63;4969576;28;123862;-74
2022/08/11 06:08:12;;;;;;;8.48;4.80;;;;;;;21.18;48.16;102161.25;4968170;28;123670;-74
2022/08/11 06:10:44;;;;;;;8.60;4.88;;;;;;;21.26;48.16;102163.41;4936410;28;113397;-74
2022/08/11 06:13:16;;;;;;;5.95;4.38;;;;;;;21.34;47.79;102160.19;4970401;28;113747;-74
2022/08/11 06:15:48;;;;;;;5.72;4.60;;;;;;;21.42;47.86;102163.22;4950387;28;123894;-74
2022/08/11 06:18:17;;;;;;;6.15;4.60;;;;;;;21.50;47.88;102168.97;4949233;28;123032;-74
2022/08/11 06:20:46;;;;;;;6.63;4.38;;;;;;;21.62;47.79;102174.47;4963811;28;115063;-74
2022/08/11 06:23:16;;;;;;;7.38;4.30;;;;;;;21.71;47.65;102171.13;4970529;28;114939;-74
2022/08/11 06:25:44;;;;;;;8.55;4.90;;;;;;;21.82;47.42;102176.59;4969152;28;124362;-74
2022/08/11 06:28:14;;;;;;;6.75;4.25;;;;;;;21.94;47.37;102174.84;4967935;28;122724;-74
2022/08/11 06:30:47;;;;;;;5.80;3.92;;;;;;;22.04;47.05;102175.94;4968779;28;114091;-74
2022/08/11 06:33:20;;;;;;;7.50;4.57;;;;;;;22.16;46.89;102174.16;4923657;28;112601;-74
2022/08/11 06:36:01;;;;;;;5.28;3.90;;;;;;;22.29;46.85;102174.16;4951671;28;122429;-74
2022/08/11 06:39:05;;;;;;;7.35;3.90;;;;;;;22.45;46.61;102179.28;4967941;28;123655;-74
2022/08/11 06:41:48;;;;;;;5.95;3.83;;;;;;;22.59;46.24;102170.16;4966542;28;114632;-74
2022/08/11 06:44:31;;;;;;;4.88;3.50;;;;;;;22.74;46.37;102174.41;4951831;28;113910;-74
2022/08/11 06:47:10;;;;;;;5.15;3.60;;;;;;;22.89;46.03;102169.69;4952280;28;123848;-74
2022/08/11 06:52:36;;;;;;;13.95;4.45;;;;;;;23.21;45.68;102171.78;4953191;28;113385;-74
2022/08/11 06:55:11;;;;;;;6.78;3.60;;;;;;;23.38;45.54;102168.63;4956744;28;112871;-74
2022/08/11 07:00:48;;;;;;;6.00;3.30;;;;;;;23.78;44.77;102176.25;4973821;28;123974;-74
2022/08/11 07:03:18;;;;;;;4.68;3.47;;;;;;;23.96;44.24;102162.25;4974814;28;112727;-74
2022/08/11 07:06:05;;;;;;;4.53;3.40;;;;;;;24.12;44.03;102168.16;4976041;28;113805;-74
2022/08/11 07:17:48;;;;;;;5.80;2.92;;;;;;;24.92;42.81;102166.06;4968604;28;114738;-74
2022/08/11 07:28:57;;;;;;;5.13;2.22;;;;;;;25.61;41.29;102165.56;4967204;28;112899;-74
2022/08/11 07:31:27;;;;;;;4.80;2.60;;;;;;;25.79;41.29;102163.91;4967259;28;123225;-74
2022/08/11 07:34:08;;;;;;;6.60;2.60;;;;;;;25.98;40.86;102165.03;4969951;28;123511;-74
2022/08/11 07:36:48;;;;;;;4.22;2.70;;;;;;;26.15;40.43;102161.63;4954624;28;113403;-74
2022/08/11 07:39:20;;;;;;;4.15;2.55;;;;;;;26.32;39.92;102161.97;4969265;28;113677;-75
2022/08/11 07:41:50;;;;;;;4.25;2.42;;;;;;;26.47;39.83;102159.69;4966583;28;124062;-74
2022/08/11 07:44:18;;;;;;;2.97;2.30;;;;;;;26.61;39.73;102160.16;4972679;28;123728;-74
2022/08/11 07:52:35;;;;;;;4.20;2.55;;;;;;;27.23;38.93;102162.53;4967623;28;124649;-75
2022/08/11 07:55:06;;;;;;;5.22;2.55;;;;;;;27.42;38.53;102166.25;4966812;28;123687;-75
2022/08/11 08:17:51;;;;;;;4.45;2.22;;;;;;;28.60;35.88;102156.50;4967199;28;123962;-75
2022/08/11 08:20:43;;;;;;;4.32;2.38;;;;;;;28.72;36.23;102160.69;4950941;28;113721;-74
2022/08/11 08:23:10;;;;;;;3.42;2.47;;;;;;;28.86;35.38;102157.41;4953622;28;114453;-75
2022/08/11 08:25:40;;;;;;;5.78;2.50;;;;;;;28.97;35.33;102153.59;4968287;28;123243;-75
2022/08/11 08:28:14;;;;;;;4.28;2.35;;;;;;;29.10;35.05;102147.69;4968721;28;123882;-74
2022/08/11 08:30:46;;;;;;;3.72;2.28;;;;;;;29.27;35.17;102149.59;4949913;28;113538;-75
2022/08/11 08:33:23;;;;;;;4.70;2.20;;;;;;;29.42;34.39;102157.16;4955391;28;113030;-74
2022/08/11 08:36:10;;;;;;;4.07;2.60;;;;;;;29.56;33.78;102153.84;4967298;28;123589;-74
2022/08/11 08:38:41;;;;;;;2.95;2.28;;;;;;;29.63;33.64;102149.44;4957605;28;123868;-74
2022/08/11 08:41:10;;;;;;;4.13;2.28;;;;;;;29.74;33.16;102150.19;4952203;28;114174;-74
2022/08/11 08:43:47;;;;;;;4.05;2.47;;;;;;;29.80;32.99;102155.00;4968929;28;113503;-74
2022/08/11 08:46:20;;;;;;;4.78;2.63;;;;;;;29.86;32.86;102155.19;4976823;28;122721;-75
2022/08/11 08:48:49;;;;;;;4.80;2.50;;;;;;;29.93;33.08;102152.66;4986804;28;123723;-74
2022/08/11 08:51:33;;;;;;;4.45;2.20;;;;;;;30.00;32.56;102156.44;4974986;28;114803;-74
2022/08/11 08:54:32;;;;;;;4.53;2.40;;;;;;;30.07;32.84;102160.22;4991668;28;114483;-74
2022/08/11 08:57:04;;;;;;;4.40;2.50;;;;;;;30.19;32.44;102151.72;4987881;28;124538;-74
2022/08/11 08:59:36;;;;;;;6.40;2.40;;;;;;;30.29;31.77;102155.16;4961130;28;121981;-74
2022/08/11 09:02:18;;;;;;;6.10;2.60;;;;;;;30.33;32.01;102161.16;4953543;28;115984;-75
2022/08/11 09:05:01;;;;;;;3.20;2.40;;;;;;;30.40;31.82;102151.28;4950654;28;114802;-74
2022/08/11 09:07:28;;;;;;;5.22;2.60;;;;;;;30.47;31.90;102146.84;4938253;28;123771;-74
2022/08/11 09:10:08;;;;;;;4.75;2.50;;;;;;;30.59;32.15;102155.56;4967059;28;123019;-74
2022/08/11 09:12:39;;;;;;;9.82;2.50;;;;;;;30.73;32.28;102152.16;4949724;28;113861;-74
2022/08/11 09:15:08;;;;;;;4.70;2.70;;;;;;;30.92;31.41;102155.63;4967396;28;113754;-75
2022/08/11 09:17:50;;;;;;;4.40;2.28;;;;;;;31.03;31.45;102158.00;4967390;28;125453;-75
2022/08/11 09:20:20;;;;;;;6.22;2.60;;;;;;;31.12;31.58;102156.97;4948578;28;123786;-75
2022/08/11 09:28:46;;;;;;;5.22;2.10;;;;;;;31.37;30.90;102137.75;4973380;28;124064;-75
2022/08/11 09:31:14;;;;;;;2.80;2.10;;;;;;;31.45;30.93;102151.41;4953051;28;123573;-75
2022/08/11 09:33:43;;;;;;;2.58;2.08;;;;;;;31.53;30.93;102148.72;4968176;28;114003;-74
2022/08/11 09:41:50;;;;;;;3.45;2.20;;;;;;;31.79;29.96;102136.59;4972419;28;96953;-74
2022/08/11 09:44:46;;;;;;;6.78;2.40;;;;;;;31.85;30.01;102132.28;4952709;28;114407;-75
2022/08/11 09:47:28;;;;;;;3.13;2.42;;;;;;;31.92;29.78;102136.88;4970996;28;113602;-74
2022/08/11 09:50:00;;;;;;;2.90;2.38;;;;;;;31.94;28.70;102140.28;4953481;28;123891;-74
2022/08/11 09:52:37;;;;;;;4.18;2.45;;;;;;;31.96;28.76;102132.75;4969817;28;122958;-75
2022/08/11 09:55:09;;;;;;;8.18;2.33;;;;;;;32.01;29.14;102130.31;4968194;28;115931;-75
2022/08/11 10:00:31;;;;;;;4.28;2.35;;;;;;;32.19;29.25;102115.50;4952948;28;123024;-75
2022/08/11 10:03:01;;;;;;;3.55;2.47;;;;;;;32.27;28.67;102117.34;4971130;28;122677;-75
2022/08/11 10:08:18;;;;;;;3.47;2.30;;;;;;;32.35;28.27;102114.56;4969044;28;114369;-75
2022/08/11 10:10:46;;;;;;;4.22;2.42;;;;;;;32.42;28.12;102109.19;4971638;28;126072;-75
2022/08/11 10:13:19;;;;;;;4.43;2.45;;;;;;;32.49;28.21;102111.00;4973043;28;123709;-75
2022/08/11 10:16:09;;;;;;;6.68;2.20;;;;;;;32.60;28.06;102107.00;4959123;28;112955;-75
2022/08/11 10:18:50;;;;;;;3.75;2.38;;;;;;;32.67;27.67;102102.50;4957597;28;113180;-74
2022/08/11 10:26:48;;;;;;;4.30;2.10;;;;;;;32.70;27.59;102099.41;4968828;28;122738;-74
2022/08/11 10:27:18;;;;;;;3.33;2.47;;;;;;;32.81;27.15;102098.06;4971556;28;114050;-74
2022/08/11 10:35:28;;;;;;;4.00;2.30;;;;;;;32.94;26.51;102091.94;4967579;28;124008;-75
2022/08/11 10:37:56;;;;;;;6.18;2.40;;;;;;;33.03;26.68;102085.34;4966001;28;114652;-75
2022/08/11 10:40:43;;;;;;;3.42;2.33;;;;;;;33.15;27.31;102088.50;4970745;28;113457;-75
2022/08/11 10:43:12;;;;;;;3.97;2.47;;;;;;;33.31;26.90;102088.31;4952041;28;125161;-75
2022/08/11 10:48:57;;;;;;;3.30;2.40;;;;;;;33.56;26.07;102090.75;4959450;28;114995;-75
2022/08/11 10:59:56;;;;;;;3.35;2.10;;;;;;;33.90;25.24;102079.16;4967985;28;114694;-75
2022/08/11 11:02:26;;;;;;;5.00;2.08;;;;;;;34.03;25.64;102080.34;4953075;28;112862;-75
2022/08/11 11:05:08;;;;;;;4.43;2.42;;;;;;;34.14;24.59;102082.59;4968295;28;124338;-75
2022/08/11 11:07:41;;;;;;;4.25;1.92;;;;;;;34.22;24.79;102071.47;4967737;28;124782;-75
2022/08/11 11:10:11;;;;;;;2.97;2.00;;;;;;;34.32;24.59;102069.25;4968257;28;114064;-73
2022/08/11 11:18:21;;;;;;;2.03;1.83;;;;;;;34.44;23.49;102063.22;4956604;28;124471;-73
2022/08/11 11:21:05;;;;;;;3.15;2.03;;;;;;;34.49;23.52;102063.47;4968289;28;114475;-73
2022/08/11 11:23:37;;;;;;;;;;;;;;;34.53;24.79;102064.78;4951350;28;114067;-73
2022/08/11 11:26:31;;;;;;;2.20;2.00;;;;;;;34.65;23.65;102063.19;4967888;28;125168;-73
2022/08/11 11:29:27;;;;;;;3.87;2.10;;;;;;;34.77;23.95;102057.16;4968653;28;123326;-73
2022/08/11 11:32:22;;;;;;;5.35;2.10;;;;;;;34.86;23.79;102054.03;4940285;28;114567;-73
2022/08/11 11:34:58;;;;;;;4.10;2.10;;;;;;;34.90;23.01;102054.50;4967834;28;114055;-73
2022/08/11 11:37:28;;;;;;;3.15;2.10;;;;;;;34.93;23.20;102051.34;4936047;28;123603;-73
2022/08/11 11:39:56;;;;;;;3.13;1.90;;;;;;;34.96;22.86;102048.22;4966676;28;124204;-74
2022/08/11 11:42:24;;;;;;;3.53;2.15;;;;;;;34.98;22.89;102051.59;4969774;28;115360;-74
2022/08/11 11:44:52;;;;;;;3.85;2.35;;;;;;;35.00;22.66;102044.00;4969515;28;115078;-74
2022/08/11 11:47:24;;;;;;;3.92;2.10;;;;;;;35.02;21.74;102050.13;4952404;28;123760;-73
2022/08/11 11:49:51;;;;;;;2.80;2.15;;;;;;;35.03;22.24;102043.56;4950692;28;122514;-74
2022/08/11 11:52:20;;;;;;;3.13;1.92;;;;;;;35.08;22.09;102049.31;4969441;28;114249;-74
2022/08/11 11:54:50;;;;;;;3.75;2.17;;;;;;;35.10;22.00;102049.13;4951147;28;113256;-74
2022/08/11 12:03:04;;;;;;;3.10;2.10;;;;;;;35.17;21.98;102043.63;4968986;28;113997;-74
2022/08/11 12:05:34;;;;;;;5.30;2.30;;;;;;;35.18;22.03;102039.88;4951514;28;112785;-74
2022/08/11 12:08:11;;;;;;;7.32;2.10;;;;;;;35.18;21.40;102037.13;4968996;28;123527;-74
2022/08/11 12:13:39;;;;;;;4.63;2.20;;;;;;;35.13;21.52;102031.31;4968218;28;123217;-74
2022/08/11 12:13:40;;;;;;;4.28;2.20;;;;;;;35.13;21.45;102025.81;4970596;28;114875;-74
2022/08/11 12:16:13;;;;;;;4.00;2.15;;;;;;;35.17;22.35;102024.34;4967767;28;112804;-74
2022/08/11 12:19:01;;;;;;;3.45;2.03;;;;;;;35.22;21.24;102019.13;4963918;28;123644;-74
2022/08/11 12:21:29;;;;;;;5.68;2.17;;;;;;;35.20;20.93;102018.47;4969504;28;123698;-74
2022/08/11 12:29:36;;;;;;;2.50;1.90;;;;;;;35.39;21.72;102009.44;4965704;28;124124;-74
2022/08/11 12:32:10;;;;;;;2.65;2.10;;;;;;;35.47;21.35;101998.25;4968008;28;123096;-74
2022/08/11 12:34:37;;;;;;;2.25;1.70;;;;;;;35.51;21.06;101997.81;4967474;28;113963;-74
2022/08/11 12:37:09;;;;;;;8.38;2.28;;;;;;;35.59;21.09;101992.16;4968629;28;114057;-74
2022/08/11 12:46:18;;;;;;;2.42;1.95;;;;;;;35.75;20.43;101991.75;4967806;28;113931;-74
2022/08/11 12:54:48;;;;;;;2.70;1.90;;;;;;;35.72;20.24;101981.19;4951633;28;123446;-74
2022/08/11 13:05:57;;;;;;;2.58;2.05;;;;;;;35.88;20.24;101960.63;4966454;28;123152;-74
2022/08/11 13:08:26;;;;;;;3.05;1.90;;;;;;;35.94;19.70;101957.03;4971495;28;114053;-74
2022/08/11 13:13:43;;;;;;;2.92;1.70;;;;;;;36.02;19.37;101964.25;4972235;28;124700;-75
2022/08/11 13:17:20;;;;;;;2.17;1.70;;;;;;;35.99;19.23;101953.63;4958224;28;124360;-74
2022/08/11 13:19:24;;;;;;;3.92;2.22;;;;;;;36.03;19.27;101949.38;4955909;28;113190;-74
2022/08/11 13:21:52;;;;;;;2.65;1.73;;;;;;;36.08;19.30;101952.34;4972942;28;114398;-74
2022/08/11 13:24:21;;;;;;;2.78;1.80;;;;;;;36.12;19.27;101942.59;4953530;28;124263;-74
2022/08/11 13:26:49;;;;;;;3.15;2.00;;;;;;;36.19;19.29;101946.25;4972067;28;123412;-74
2022/08/11 13:29:23;;;;;;;3.33;1.92;;;;;;;36.25;18.98;101941.78;4953202;28;114579;-75
2022/08/11 13:31:55;;;;;;;2.80;2.20;;;;;;;36.29;19.08;101934.75;4971668;28;114024;-74
2022/08/11 13:34:25;;;;;;;4.30;1.90;;;;;;;36.35;19.70;101924.78;4969862;28;124296;-74
2022/08/11 13:36:59;;;;;;;3.72;1.90;;;;;;;36.47;19.83;101928.59;4954528;28;124069;-75
2022/08/11 13:39:29;;;;;;;2.97;1.90;;;;;;;36.61;19.75;101919.19;4972143;28;114658;-75
2022/08/11 13:41:59;;;;;;;4.40;2.22;;;;;;;36.74;19.34;101923.03;4972566;28;113655;-75
2022/08/11 13:44:28;;;;;;;2.45;1.92;;;;;;;36.79;19.40;101926.00;4971090;28;124049;-74
2022/08/11 13:47:00;;;;;;;2.85;1.98;;;;;;;36.83;18.64;101917.03;4971947;28;123942;-75
2022/08/11 13:49:30;;;;;;;8.63;2.42;;;;;;;36.86;19.11;101915.75;4954672;28;113427;-75
2022/08/11 13:51:58;;;;;;;3.38;2.03;;;;;;;36.88;19.32;101919.13;4970862;28;113555;-75
2022/08/11 13:54:29;;;;;;;5.05;2.15;;;;;;;36.90;18.54;101918.91;4953474;28;122692;-75
2022/08/11 13:57:02;;;;;;;3.22;1.88;;;;;;;36.86;18.24;101910.22;4932515;28;123160;-75
2022/08/11 13:59:34;;;;;;;2.10;1.83;;;;;;;36.87;18.23;101911.94;4970538;28;113622;-74
2022/08/11 14:02:16;;;;;;;3.47;2.05;;;;;;;36.92;18.83;101909.38;4971501;28;113658;-74
2022/08/11 14:05:05;;;;;;;2.63;1.92;;;;;;;37.06;18.93;101912.06;4968986;28;124155;-75
2022/08/11 14:07:46;;;;;;;3.72;1.98;;;;;;;37.14;18.91;101911.81;4969491;28;123787;-74
2022/08/11 14:10:16;;;;;;;2.95;1.85;;;;;;;37.21;18.03;101901.59;4954019;28;114736;-75
2022/08/11 14:15:43;;;;;;;2.42;1.85;;;;;;;37.14;17.83;101900.78;4969924;28;123634;-74
2022/08/11 14:18:20;;;;;;;4.53;1.67;;;;;;;37.12;17.83;101902.88;4957899;28;123711;-75
2022/08/11 14:23:40;;;;;;;3.08;1.92;;;;;;;37.10;18.30;101893.97;4969381;28;115290;-75
2022/08/11 14:26:27;;;;;;;3.33;2.00;;;;;;;37.11;18.46;101895.66;4970919;28;123007;-75
2022/08/11 14:29:01;;;;;;;3.85;1.70;;;;;;;37.14;18.09;101884.19;4953248;28;123216;-75
2022/08/11 14:31:30;;;;;;;3.10;2.00;;;;;;;37.25;18.36;101883.50;4969157;28;114339;-75
2022/08/11 14:34:03;;;;;;;3.67;2.00;;;;;;;37.38;17.80;101891.69;4953738;28;113670;-75
2022/08/11 14:36:36;;;;;;;2.72;1.90;;;;;;;37.51;17.85;101901.00;4937072;28;122968;-75
2022/08/11 14:39:15;;;;;;;2.75;2.10;;;;;;;37.60;17.70;101883.06;4968437;28;124142;-75
2022/08/11 14:47:34;;;;;;;2.60;2.08;;;;;;;37.70;17.72;101877.06;4953365;28;123588;-75
2022/08/11 14:50:03;;;;;;;2.35;1.80;;;;;;;37.76;17.64;101876.97;4970331;28;124093;-75
2022/08/11 14:52:44;;;;;;;3.85;2.00;;;;;;;37.87;17.45;101878.16;4969741;28;113572;-75
2022/08/11 14:58:01;;;;;;;1.92;1.73;;;;;;;37.99;17.44;101881.03;4968320;28;123711;-75
2022/08/11 15:00:29;;;;;;;2.65;1.80;;;;;;;38.05;17.33;101869.09;4967883;28;123585;-75
2022/08/11 15:03:11;;;;;;;3.95;2.00;;;;;;;38.05;16.82;101863.53;4969448;28;113832;-75
2022/08/11 15:05:50;;;;;;;2.85;1.88;;;;;;;38.07;17.15;101878.00;4969621;28;114512;-75
2022/08/11 15:14:05;;;;;;;3.65;2.08;;;;;;;38.31;16.66;101856.06;4952242;28;114671;-75
2022/08/11 15:19:20;;;;;;;2.85;1.67;;;;;;;38.65;16.88;101851.00;4967541;28;124506;-75
2022/08/11 15:24:35;;;;;;;2.03;1.63;;;;;;;39.09;16.76;101851.72;4968609;28;112557;-75
2022/08/11 15:38:43;;;;;;;4.93;1.67;;;;;;;39.79;16.17;101828.00;4957565;28;113184;-75
2022/08/11 15:47:17;;;;;;;2.83;1.60;;;;;;;39.69;16.16;101829.44;4952965;28;113837;-75
2022/08/11 15:49:50;;;;;;;3.05;1.85;;;;;;;39.71;15.38;101827.28;4968362;28;111849;-75
2022/08/11 15:52:51;;;;;;;5.68;1.90;;;;;;;39.59;15.82;101823.63;4952687;28;123110;-75
2022/08/11 15:55:20;;;;;;;2.00;1.50;;;;;;;39.48;15.40;101821.69;4951351;28;123026;-75
2022/08/11 16:04:10;;;;;;;2.65;1.80;;;;;;;39.31;15.96;101816.84;4952405;28;123968;-75
2022/08/11 16:06:50;;;;;;;3.00;1.80;;;;;;;39.41;15.79;101816.25;4943581;28;123654;-75
2022/08/11 16:09:22;;;;;;;4.63;1.77;;;;;;;39.49;15.92;101817.84;4965300;28;115341;-75
2022/08/11 16:11:51;;;;;;;1.92;1.70;;;;;;;39.51;16.01;101810.13;4952564;28;114015;-75
2022/08/11 16:17:10;;;;;;;3.05;1.60;;;;;;;39.47;15.33;101811.69;4951883;28;123171;-75
2022/08/11 16:19:40;;;;;;;5.63;2.10;;;;;;;39.53;15.85;101805.19;4968435;28;113792;-75
2022/08/11 16:22:10;;;;;;;2.42;1.80;;;;;;;39.49;15.93;101792.91;4969315;28;113649;-75
2022/08/11 16:24:43;;;;;;;4.28;1.92;;;;;;;39.45;15.72;101794.47;4968533;28;123445;-78
2022/08/11 16:27:36;;;;;;;3.05;1.80;;;;;;;39.46;15.94;101796.13;4954796;28;122867;-78
2022/08/11 16:30:07;;;;;;;2.45;1.80;;;;;;;39.46;15.62;101791.44;4966742;28;114596;-78
2022/08/11 16:32:37;;;;;;;4.68;1.70;;;;;;;39.52;16.09;101789.63;4935702;28;112143;-77
2022/08/11 16:40:42;;;;;;;4.22;1.77;;;;;;;39.39;15.58;101795.38;4967892;28;114138;-77
2022/08/11 16:48:52;;;;;;;2.58;1.60;;;;;;;38.91;15.95;101784.16;4957536;28;124571;-78
2022/08/11 16:51:20;;;;;;;2.88;1.50;;;;;;;38.94;15.74;101788.38;4952473;28;113796;-77